createdAt,value
2023-08-16T00:01:33.731Z,20.14
2023-08-16T00:04:00.897Z,20.12
2023-08-16T00:06:29.046Z,20.09
2023-08-16T00:09:00.836Z,20.08
2023-08-16T00:11:28.461Z,20.06
2023-08-16T00:13:55.361Z,20.04
2023-08-16T00:16:22.383Z,20.02
2023-08-16T00:18:49.207Z,20.02
2023-08-16T00:21:16.273Z,20.02
2023-08-16T00:23:43.265Z,20.00
2023-08-16T00:26:10.191Z,19.99
2023-08-16T00:28:37.027Z,19.95
2023-08-16T00:31:04.049Z,19.94
2023-08-16T00:33:30.984Z,19.93
2023-08-16T00:35:57.807Z,19.90
2023-08-16T00:38:24.792Z,19.91
2023-08-16T00:40:52.688Z,19.90
2023-08-16T00:43:19.814Z,19.87
2023-08-16T00:45:49.171Z,19.87
2023-08-16T00:48:16.212Z,19.87
2023-08-16T00:50:43.321Z,19.82
2023-08-16T00:53:10.449Z,19.82
2023-08-16T00:55:37.541Z,19.79
2023-08-16T00:58:04.685Z,19.79
2023-08-16T01:00:31.789Z,19.78
2023-08-16T01:02:58.808Z,19.77
2023-08-16T01:05:25.864Z,19.74
2023-08-16T01:07:53.120Z,19.73
2023-08-16T01:10:26.971Z,19.71
2023-08-16T01:13:09.416Z,19.70
2023-08-16T01:15:40.281Z,19.66
2023-08-16T01:18:07.579Z,19.67
2023-08-16T01:20:35.723Z,19.64
2023-08-16T01:23:06.813Z,19.63
2023-08-16T01:25:49.860Z,19.63
2023-08-16T01:28:17.591Z,19.59
2023-08-16T01:30:46.945Z,19.58
2023-08-16T01:33:14.811Z,19.58
2023-08-16T01:35:42.284Z,19.53
2023-08-16T01:38:10.555Z,19.55
2023-08-16T01:41:04.158Z,19.51
2023-08-16T01:43:32.190Z,19.49
2023-08-16T01:46:00.208Z,19.50
2023-08-16T01:48:27.905Z,19.51
2023-08-16T01:50:55.025Z,19.50
2023-08-16T01:53:21.946Z,19.46
2023-08-16T01:55:48.850Z,19.43
2023-08-16T01:58:15.725Z,19.43
2023-08-16T02:00:42.784Z,19.42
2023-08-16T02:03:09.906Z,19.43
2023-08-16T02:05:36.931Z,19.43
2023-08-16T02:08:04.089Z,19.40
2023-08-16T02:10:31.007Z,19.38
2023-08-16T02:12:57.937Z,19.39
2023-08-16T02:15:25.382Z,19.39
2023-08-16T02:17:52.325Z,19.39
2023-08-16T02:20:19.209Z,19.39
2023-08-16T02:22:46.111Z,19.40
2023-08-16T02:25:13.163Z,19.39
2023-08-16T02:27:40.674Z,19.40
2023-08-16T02:30:08.375Z,19.42
2023-08-16T02:32:35.504Z,19.44
2023-08-16T02:35:02.690Z,19.43
2023-08-16T02:37:30.962Z,19.44
2023-08-16T02:39:58.423Z,19.44
2023-08-16T02:42:25.521Z,19.46
2023-08-16T02:44:52.449Z,19.45
2023-08-16T02:47:19.284Z,19.46
2023-08-16T02:49:46.399Z,19.46
2023-08-16T02:52:13.737Z,19.46
2023-08-16T02:54:41.432Z,19.46
2023-08-16T02:57:08.655Z,19.46
2023-08-16T02:59:42.476Z,19.45
2023-08-16T03:02:09.691Z,19.44
2023-08-16T03:04:41.218Z,19.44
2023-08-16T03:07:09.511Z,19.44
2023-08-16T03:09:37.152Z,19.44
2023-08-16T03:12:05.070Z,19.44
2023-08-16T03:14:32.382Z,19.43
2023-08-16T03:16:59.791Z,19.45
2023-08-16T03:19:27.220Z,19.44
2023-08-16T03:21:55.846Z,19.43
2023-08-16T03:24:23.644Z,19.44
2023-08-16T03:26:51.046Z,19.44
2023-08-16T03:29:17.905Z,19.44
2023-08-16T03:31:44.733Z,19.43
2023-08-16T03:34:12.028Z,19.43
2023-08-16T03:36:38.958Z,19.42
2023-08-16T03:39:06.681Z,19.44
2023-08-16T03:41:35.163Z,19.43
2023-08-16T03:44:02.958Z,19.40
2023-08-16T03:46:29.896Z,19.41
2023-08-16T03:48:56.980Z,19.41
2023-08-16T03:51:24.196Z,19.41
2023-08-16T03:53:51.224Z,19.43
2023-08-16T03:56:18.159Z,19.42
2023-08-16T03:58:45.160Z,19.43
2023-08-16T04:01:12.981Z,19.42
2023-08-16T04:03:40.001Z,19.43
2023-08-16T04:06:12.905Z,19.42
2023-08-16T04:08:40.259Z,19.42
2023-08-16T04:11:07.655Z,19.44
2023-08-16T04:13:34.936Z,19.43
2023-08-16T04:16:02.003Z,19.44
2023-08-16T04:18:29.369Z,19.43
2023-08-16T04:20:56.958Z,19.42
2023-08-16T04:23:24.257Z,19.42
2023-08-16T04:25:51.957Z,19.42
2023-08-16T04:28:18.922Z,19.41
2023-08-16T04:30:45.765Z,19.41
2023-08-16T04:33:13.087Z,19.40
2023-08-16T04:35:39.997Z,19.40
2023-08-16T04:38:07.290Z,19.41
2023-08-16T04:40:34.446Z,19.41
2023-08-16T04:43:01.315Z,19.41
2023-08-16T04:45:28.221Z,19.40
2023-08-16T04:47:55.183Z,19.37
2023-08-16T04:50:22.039Z,19.37
2023-08-16T04:52:48.871Z,19.38
2023-08-16T04:55:16.798Z,19.38
2023-08-16T04:57:44.679Z,19.39
2023-08-16T05:00:12.148Z,19.39
2023-08-16T05:02:39.389Z,19.40
2023-08-16T05:05:06.859Z,19.40
2023-08-16T05:07:34.024Z,19.39
2023-08-16T05:10:01.136Z,19.38
2023-08-16T05:12:28.578Z,19.39
2023-08-16T05:14:55.470Z,19.38
2023-08-16T05:17:22.783Z,19.38
2023-08-16T05:19:49.980Z,19.38
2023-08-16T05:22:16.978Z,19.36
2023-08-16T05:24:43.926Z,19.37
2023-08-16T05:27:13.642Z,19.37
2023-08-16T05:29:41.411Z,19.38
2023-08-16T05:32:08.404Z,19.36
2023-08-16T05:34:35.412Z,19.35
2023-08-16T05:37:02.390Z,19.35
2023-08-16T05:39:29.260Z,19.33
2023-08-16T05:41:56.101Z,19.35
2023-08-16T05:44:22.986Z,19.35
2023-08-16T05:46:49.921Z,19.35
2023-08-16T05:49:16.963Z,19.34
2023-08-16T05:51:43.877Z,19.34
2023-08-16T05:54:10.746Z,19.34
2023-08-16T05:56:39.082Z,19.33
2023-08-16T05:59:05.949Z,19.33
2023-08-16T06:01:32.881Z,19.34
2023-08-16T06:03:59.910Z,19.33
2023-08-16T06:06:26.941Z,19.33
2023-08-16T06:08:53.852Z,19.32
2023-08-16T06:11:20.674Z,19.32
2023-08-16T06:13:47.529Z,19.34
2023-08-16T06:16:14.456Z,19.34
2023-08-16T06:18:41.431Z,19.32
2023-08-16T06:21:08.285Z,19.33
2023-08-16T06:23:35.130Z,19.28
2023-08-16T06:26:01.996Z,19.30
2023-08-16T06:28:28.845Z,19.32
2023-08-16T06:30:55.793Z,19.34
2023-08-16T06:33:23.241Z,19.34
2023-08-16T06:35:53.074Z,19.34
2023-08-16T06:38:20.530Z,19.34
2023-08-16T06:40:47.463Z,19.36
2023-08-16T06:43:14.344Z,19.34
2023-08-16T06:45:41.450Z,19.33
2023-08-16T06:48:09.032Z,19.35
2023-08-16T06:50:36.039Z,19.36
2023-08-16T06:53:03.036Z,19.37
2023-08-16T06:55:30.146Z,19.39
2023-08-16T06:57:57.039Z,19.39
2023-08-16T07:00:23.944Z,19.36
2023-08-16T07:02:50.978Z,19.39
2023-08-16T07:05:17.960Z,19.39
2023-08-16T07:07:44.886Z,19.42
2023-08-16T07:10:11.866Z,19.43
2023-08-16T07:12:38.778Z,19.46
2023-08-16T07:15:06.342Z,19.48
2023-08-16T07:17:33.240Z,19.49
2023-08-16T07:20:00.137Z,19.50
2023-08-16T07:22:28.592Z,19.50
2023-08-16T07:24:55.927Z,19.52
2023-08-16T07:27:22.945Z,19.56
2023-08-16T07:29:49.915Z,19.60
2023-08-16T07:32:17.081Z,19.60
2023-08-16T07:34:44.721Z,19.64
2023-08-16T07:37:12.812Z,19.71
2023-08-16T07:39:39.742Z,19.74
2023-08-16T07:42:08.137Z,19.76
2023-08-16T07:44:35.707Z,19.80
2023-08-16T07:47:03.138Z,19.82
2023-08-16T07:49:30.504Z,19.86
2023-08-16T07:51:58.069Z,19.89
2023-08-16T07:54:26.399Z,19.94
2023-08-16T07:56:54.020Z,19.99
2023-08-16T07:59:20.925Z,20.02
2023-08-16T08:01:48.053Z,20.05
2023-08-16T08:04:15.298Z,20.09
2023-08-16T08:06:42.659Z,20.14
2023-08-16T08:09:09.683Z,20.18
2023-08-16T08:11:38.375Z,20.21
2023-08-16T08:14:05.732Z,20.26
2023-08-16T08:16:32.903Z,20.29
2023-08-16T08:18:59.923Z,20.33
2023-08-16T08:21:26.932Z,20.37
2023-08-16T08:23:53.787Z,20.41
2023-08-16T08:26:21.026Z,20.45
2023-08-16T08:28:47.906Z,20.47
2023-08-16T08:31:15.102Z,20.49
2023-08-16T08:33:42.239Z,20.51
2023-08-16T08:36:09.274Z,20.58
2023-08-16T08:38:36.499Z,20.56
2023-08-16T08:41:04.091Z,20.56
2023-08-16T08:43:57.490Z,20.59
2023-08-16T08:46:27.056Z,20.61
2023-08-16T08:48:54.079Z,20.65
2023-08-16T08:51:21.106Z,20.67
2023-08-16T08:53:47.957Z,20.69
2023-08-16T08:56:17.407Z,20.72
2023-08-16T08:58:44.566Z,20.73
2023-08-16T09:01:11.897Z,20.78
2023-08-16T09:03:39.574Z,20.82
2023-08-16T09:06:06.635Z,20.86
2023-08-16T09:08:35.632Z,20.91
2023-08-16T09:11:03.075Z,20.95
2023-08-16T09:13:30.027Z,20.98
2023-08-16T09:15:56.963Z,21.00
2023-08-16T09:18:25.271Z,21.02
2023-08-16T09:20:54.075Z,21.07
2023-08-16T09:23:21.176Z,21.09
2023-08-16T09:25:48.132Z,21.11
2023-08-16T09:28:15.869Z,21.13
2023-08-16T09:30:42.777Z,21.15
2023-08-16T09:33:10.674Z,21.18
2023-08-16T09:35:39.908Z,21.22
2023-08-16T09:38:17.959Z,21.25
2023-08-16T09:40:52.170Z,21.28
2023-08-16T09:43:19.925Z,21.32
2023-08-16T09:45:53.361Z,21.33
2023-08-16T09:48:21.654Z,21.36
2023-08-16T09:50:52.853Z,21.37
2023-08-16T09:53:38.630Z,21.41
2023-08-16T09:58:36.939Z,21.49
2023-08-16T10:01:28.644Z,21.55
2023-08-16T10:06:38.240Z,21.65
2023-08-16T10:09:09.406Z,21.71
2023-08-16T10:11:37.778Z,21.74
2023-08-16T10:14:08.081Z,21.78
2023-08-16T10:16:36.854Z,21.83
2023-08-16T10:19:04.380Z,21.87
2023-08-16T10:21:32.737Z,21.91
2023-08-16T10:24:00.599Z,21.94
2023-08-16T10:26:30.679Z,21.98
2023-08-16T10:29:01.554Z,22.01
2023-08-16T10:31:34.997Z,22.05
2023-08-16T10:34:03.215Z,22.09
2023-08-16T10:36:30.603Z,22.13
2023-08-16T10:38:59.524Z,22.14
2023-08-16T10:41:27.175Z,22.19
2023-08-16T10:43:55.091Z,22.20
2023-08-16T10:46:33.287Z,22.21
2023-08-16T10:49:02.343Z,22.21
2023-08-16T10:51:30.279Z,22.22
2023-08-16T10:53:58.470Z,22.23
2023-08-16T10:56:25.854Z,22.25
2023-08-16T10:58:53.611Z,22.26
2023-08-16T11:01:21.938Z,22.29
2023-08-16T11:03:50.941Z,22.33
2023-08-16T11:06:20.636Z,22.35
2023-08-16T11:08:48.972Z,22.39
2023-08-16T11:11:15.895Z,22.43
2023-08-16T11:13:43.789Z,22.45
2023-08-16T11:16:12.444Z,22.48
2023-08-16T11:18:43.212Z,22.49
2023-08-16T11:21:12.505Z,22.50
2023-08-16T11:23:41.225Z,22.50
2023-08-16T11:26:09.929Z,22.49
2023-08-16T11:28:40.248Z,22.49
2023-08-16T11:31:08.989Z,22.47
2023-08-16T11:33:37.796Z,22.45
2023-08-16T11:36:07.062Z,22.44
2023-08-16T11:38:35.758Z,22.42
2023-08-16T11:41:03.782Z,22.40
2023-08-16T11:43:32.245Z,22.38
2023-08-16T11:46:00.438Z,22.37
2023-08-16T11:48:30.029Z,22.39
2023-08-16T11:50:57.966Z,22.39
2023-08-16T11:53:32.375Z,22.41
2023-08-16T11:56:04.321Z,22.46
2023-08-16T11:58:31.434Z,22.49
2023-08-16T12:01:04.926Z,22.55
2023-08-16T12:03:35.697Z,22.61
2023-08-16T12:06:07.076Z,22.66
2023-08-16T12:08:34.171Z,22.69
2023-08-16T12:11:01.105Z,22.75
2023-08-16T12:13:27.983Z,22.78
2023-08-16T12:15:55.058Z,22.83
2023-08-16T12:18:22.603Z,22.89
2023-08-16T12:20:54.345Z,22.93
2023-08-16T12:23:21.941Z,22.98
2023-08-16T12:25:48.993Z,23.00
2023-08-16T12:28:15.917Z,23.04
2023-08-16T12:30:42.947Z,23.06
2023-08-16T12:33:09.808Z,23.10
2023-08-16T12:35:42.236Z,23.13
2023-08-16T12:38:09.825Z,23.18
2023-08-16T12:40:37.009Z,23.23
2023-08-16T12:45:37.422Z,23.27
2023-08-16T12:48:05.014Z,23.30
2023-08-16T12:50:32.268Z,23.32
2023-08-16T12:55:42.976Z,23.34
2023-08-16T12:58:21.553Z,23.33
2023-08-16T13:00:49.123Z,23.31
2023-08-16T13:08:27.772Z,23.29
2023-08-16T13:10:56.388Z,23.29
2023-08-16T13:13:31.623Z,23.27
2023-08-16T13:18:44.583Z,23.27
2023-08-16T13:23:58.910Z,23.28
2023-08-16T13:31:57.185Z,23.31
2023-08-16T13:36:56.665Z,23.36
2023-08-16T13:39:28.742Z,23.38
2023-08-16T13:44:45.379Z,23.43
2023-08-16T13:47:16.768Z,23.45
2023-08-16T13:49:46.580Z,23.48
2023-08-16T13:52:13.667Z,23.50
2023-08-16T13:54:40.589Z,23.53
2023-08-16T13:57:07.816Z,23.55
2023-08-16T13:59:34.749Z,23.57
2023-08-16T14:02:01.643Z,23.58
2023-08-16T14:04:28.573Z,23.59
2023-08-16T14:06:55.537Z,23.61
2023-08-16T14:09:22.460Z,23.62
2023-08-16T14:11:49.373Z,23.64
2023-08-16T14:14:16.533Z,23.64
2023-08-16T14:16:44.883Z,23.65
2023-08-16T14:19:11.806Z,23.67
2023-08-16T14:21:41.336Z,23.69
2023-08-16T14:24:11.100Z,23.71
2023-08-16T14:26:38.172Z,23.75
2023-08-16T14:29:07.518Z,23.76
2023-08-16T14:31:34.493Z,23.79
2023-08-16T14:34:01.414Z,23.80
2023-08-16T14:36:28.312Z,23.83
2023-08-16T14:39:00.269Z,23.84
2023-08-16T14:41:28.303Z,23.84
2023-08-16T14:43:55.235Z,23.85
2023-08-16T14:46:23.560Z,23.86
2023-08-16T14:48:51.602Z,23.87
2023-08-16T14:51:19.315Z,23.87
2023-08-16T14:53:46.216Z,23.88
2023-08-16T14:56:13.925Z,23.89
2023-08-16T14:58:41.317Z,23.90
2023-08-16T15:01:08.218Z,23.90
2023-08-16T15:03:36.035Z,23.90
2023-08-16T15:06:03.289Z,23.91
2023-08-16T15:08:30.244Z,23.92
2023-08-16T15:11:01.467Z,23.91
2023-08-16T15:13:31.284Z,23.91
2023-08-16T15:15:58.324Z,23.92
2023-08-16T15:18:25.251Z,23.93
2023-08-16T15:20:52.248Z,23.94
2023-08-16T15:23:24.361Z,23.95
2023-08-16T15:25:52.399Z,23.96
2023-08-16T15:28:19.324Z,23.97
2023-08-16T15:30:46.240Z,23.97
2023-08-16T15:33:14.491Z,23.98
2023-08-16T15:35:45.039Z,23.99
2023-08-16T15:38:38.795Z,23.97
2023-08-16T15:41:06.025Z,23.97
2023-08-16T15:43:33.780Z,23.97
2023-08-16T15:46:01.882Z,23.96
2023-08-16T15:48:28.812Z,23.95
2023-08-16T15:50:56.333Z,23.94
2023-08-16T15:53:23.815Z,23.92
2023-08-16T15:55:55.789Z,23.91
2023-08-16T15:58:27.229Z,23.91
2023-08-16T16:01:01.819Z,23.89
2023-08-16T16:03:29.780Z,23.90
2023-08-16T16:05:56.936Z,23.88
2023-08-16T16:08:24.310Z,23.87
2023-08-16T16:10:51.379Z,23.85
2023-08-16T16:13:18.300Z,23.84
2023-08-16T16:15:45.335Z,23.83
2023-08-16T16:18:12.415Z,23.82
2023-08-16T16:20:39.644Z,23.82
2023-08-16T16:23:07.391Z,23.81
2023-08-16T16:25:34.649Z,23.80
2023-08-16T16:28:01.622Z,23.80
2023-08-16T16:30:28.750Z,23.79
2023-08-16T16:32:55.724Z,23.77
2023-08-16T16:35:22.780Z,23.76
2023-08-16T16:37:49.650Z,23.76
2023-08-16T16:40:16.550Z,23.75
2023-08-16T16:42:44.308Z,23.76
2023-08-16T16:45:12.436Z,23.74
2023-08-16T16:47:40.199Z,23.73
2023-08-16T16:50:08.413Z,23.74
2023-08-16T16:52:36.269Z,23.73
2023-08-16T16:55:04.807Z,23.72
2023-08-16T16:57:33.817Z,23.71
2023-08-16T17:00:01.387Z,23.70
2023-08-16T17:02:28.631Z,23.70
2023-08-16T17:04:55.703Z,23.69
2023-08-16T17:07:22.668Z,23.68
2023-08-16T17:09:49.640Z,23.67
2023-08-16T17:12:16.563Z,23.68
2023-08-16T17:14:43.458Z,23.66
2023-08-16T17:17:10.952Z,23.65
2023-08-16T17:19:37.806Z,23.63
2023-08-16T17:22:05.747Z,23.61
2023-08-16T17:24:32.604Z,23.59
2023-08-16T17:26:59.442Z,23.58
2023-08-16T17:29:26.421Z,23.56
2023-08-16T17:31:54.055Z,23.54
2023-08-16T17:34:21.185Z,23.53
2023-08-16T17:36:48.068Z,23.50
2023-08-16T17:39:15.129Z,23.50
2023-08-16T17:41:42.169Z,23.50
2023-08-16T17:44:09.693Z,23.48
2023-08-16T17:46:36.644Z,23.48
2023-08-16T17:49:03.570Z,23.45
2023-08-16T17:51:30.438Z,23.44
2023-08-16T17:53:57.337Z,23.41
2023-08-16T17:56:24.306Z,23.39
2023-08-16T17:58:51.928Z,23.35
2023-08-16T18:01:19.070Z,23.34
2023-08-16T18:03:47.187Z,23.32
2023-08-16T18:06:14.178Z,23.30
2023-08-16T18:08:41.544Z,23.29
2023-08-16T18:11:08.461Z,23.27
2023-08-16T18:13:38.080Z,23.25
2023-08-16T18:16:05.327Z,23.22
2023-08-16T18:18:32.367Z,23.18
2023-08-16T18:20:59.337Z,23.15
2023-08-16T18:23:26.395Z,23.11
2023-08-16T18:25:53.471Z,23.08
2023-08-16T18:28:20.662Z,23.04
2023-08-16T18:30:50.574Z,23.01
2023-08-16T18:33:17.823Z,22.98
2023-08-16T18:35:44.756Z,22.94
2023-08-16T18:38:11.739Z,22.90
2023-08-16T18:40:38.695Z,22.86
2023-08-16T18:43:05.670Z,22.82
2023-08-16T18:45:32.601Z,22.80
2023-08-16T18:47:59.622Z,22.76
2023-08-16T18:50:29.542Z,22.72
2023-08-16T18:52:58.392Z,22.70
2023-08-16T18:55:25.416Z,22.67
2023-08-16T18:57:52.383Z,22.64
2023-08-16T19:00:19.705Z,22.62
2023-08-16T19:02:46.582Z,22.60
2023-08-16T19:05:13.494Z,22.56
2023-08-16T19:07:41.323Z,22.53
2023-08-16T19:10:08.917Z,22.51
2023-08-16T19:12:35.858Z,22.48
2023-08-16T19:15:02.941Z,22.45
2023-08-16T19:17:29.919Z,22.45
2023-08-16T19:19:56.981Z,22.42
2023-08-16T19:22:23.863Z,22.40
2023-08-16T19:24:50.859Z,22.39
2023-08-16T19:27:17.951Z,22.38
2023-08-16T19:29:44.955Z,22.35
2023-08-16T19:32:12.149Z,22.33
2023-08-16T19:34:39.016Z,22.30
2023-08-16T19:37:06.561Z,22.29
2023-08-16T19:39:33.430Z,22.26
2023-08-16T19:42:00.264Z,22.24
2023-08-16T19:44:27.904Z,22.22
2023-08-16T19:46:54.723Z,22.19
2023-08-16T19:49:21.572Z,22.20
2023-08-16T19:51:48.542Z,22.15
2023-08-16T19:54:15.443Z,22.15
2023-08-16T19:56:42.433Z,22.13
2023-08-16T19:59:09.304Z,22.11
2023-08-16T20:01:38.538Z,22.07
2023-08-16T20:04:06.520Z,22.04
2023-08-16T20:06:33.420Z,22.01
2023-08-16T20:09:00.286Z,21.99
2023-08-16T20:11:27.144Z,21.97
2023-08-16T20:13:54.076Z,21.96
2023-08-16T20:16:20.952Z,21.89
2023-08-16T20:18:47.812Z,21.89
2023-08-16T20:21:15.126Z,21.88
2023-08-16T20:23:41.998Z,21.88
2023-08-16T20:26:09.533Z,21.83
2023-08-16T20:28:36.401Z,21.82
2023-08-16T20:31:03.317Z,21.80
2023-08-16T20:33:30.245Z,21.78
2023-08-16T20:35:57.215Z,21.77
2023-08-16T20:38:24.072Z,21.72
2023-08-16T20:40:51.560Z,21.73
2023-08-16T20:43:19.577Z,21.69
2023-08-16T20:45:46.507Z,21.67
2023-08-16T20:48:13.632Z,21.65
2023-08-16T20:50:40.688Z,21.62
2023-08-16T20:53:07.617Z,21.63
2023-08-16T20:55:35.101Z,21.60
2023-08-16T20:58:02.035Z,21.61
2023-08-16T21:00:28.888Z,21.59
2023-08-16T21:02:55.809Z,21.56
2023-08-16T21:05:23.507Z,21.57
2023-08-16T21:07:50.425Z,21.57
2023-08-16T21:10:19.311Z,21.55
2023-08-16T21:12:46.287Z,21.54
2023-08-16T21:15:13.259Z,21.54
2023-08-16T21:17:40.161Z,21.54
2023-08-16T21:20:07.892Z,21.54
2023-08-16T21:22:34.820Z,21.47
2023-08-16T21:25:02.949Z,21.46
2023-08-16T21:27:29.914Z,21.46
2023-08-16T21:29:56.847Z,21.45
2023-08-16T21:32:23.699Z,21.44
2023-08-16T21:34:50.643Z,21.42
2023-08-16T21:37:17.583Z,21.42
2023-08-16T21:39:44.514Z,21.42
2023-08-16T21:42:11.328Z,21.38
2023-08-16T21:44:38.204Z,21.39
2023-08-16T21:47:05.075Z,21.36
2023-08-16T21:49:31.916Z,21.38
2023-08-16T21:51:59.176Z,21.34
2023-08-16T21:54:26.120Z,21.33
2023-08-16T21:56:52.978Z,21.33
2023-08-16T21:59:19.890Z,21.29
2023-08-16T22:01:46.756Z,21.28
2023-08-16T22:04:13.843Z,21.28
2023-08-16T22:06:41.578Z,21.30
2023-08-16T22:09:10.247Z,21.28
2023-08-16T22:11:37.166Z,21.25
2023-08-16T22:14:04.396Z,21.20
2023-08-16T22:16:31.330Z,21.17
2023-08-16T22:18:58.217Z,21.18
2023-08-16T22:21:25.090Z,21.15
2023-08-16T22:23:51.923Z,21.18
2023-08-16T22:26:18.853Z,21.17
2023-08-16T22:28:54.514Z,21.12
2023-08-16T22:31:21.489Z,21.13
2023-08-16T22:33:48.316Z,21.15
2023-08-16T22:36:15.210Z,21.12
2023-08-16T22:38:42.080Z,21.11
2023-08-16T22:41:10.121Z,21.10
2023-08-16T22:43:37.106Z,21.08
2023-08-16T22:46:04.124Z,21.10
2023-08-16T22:48:31.029Z,21.08
2023-08-16T22:50:57.893Z,21.09
2023-08-16T22:53:24.820Z,21.07
2023-08-16T22:55:52.649Z,21.03
2023-08-16T22:58:19.673Z,21.00
2023-08-16T23:00:46.650Z,20.96
2023-08-16T23:03:13.697Z,20.93
2023-08-16T23:05:40.575Z,20.93
2023-08-16T23:08:07.747Z,20.90
2023-08-16T23:10:34.665Z,20.86
2023-08-16T23:13:01.517Z,20.85
2023-08-16T23:15:28.445Z,20.83
2023-08-16T23:17:55.412Z,20.81
2023-08-16T23:20:22.314Z,20.79
2023-08-16T23:22:49.215Z,20.78
2023-08-16T23:25:16.137Z,20.79
2023-08-16T23:27:43.008Z,20.78
2023-08-16T23:30:10.307Z,20.76
2023-08-16T23:32:37.198Z,20.76
2023-08-16T23:35:04.905Z,20.76
2023-08-16T23:37:33.292Z,20.74
2023-08-16T23:40:00.315Z,20.72
2023-08-16T23:42:28.710Z,20.71
2023-08-16T23:44:55.654Z,20.70
2023-08-16T23:47:22.587Z,20.69
2023-08-16T23:49:49.465Z,20.68
2023-08-16T23:52:16.420Z,20.67
2023-08-16T23:54:43.290Z,20.63
2023-08-16T23:57:10.599Z,20.61
2023-08-16T23:59:40.612Z,20.58
